Time;durP1;ratioP1;P1;durP2;ratioP2;P2;SDS_P1;SDS_P2;PMS_P1;PMS_P2;Temp;Humidity;BMP_temperature;BMP_pressure;BME280_temperature;BME280_humidity;BME280_pressure;Samples;Min_cycle;Max_cycle;Signal;HPM_P1;HPM_P2
2021/11/25 00:00:59;;;;;;;;;;;;;;;5.15;100.00;98828.81;5043973;28;19928;-67
2021/11/25 00:03:31;;;;;;;;;;;;;;;5.08;100.00;98818.72;5048001;28;19927;-67
2021/11/25 00:05:57;;;;;;;;;;;;;;;4.93;100.00;98817.22;5048371;28;19971;-67
2021/11/25 00:08:23;;;;;;;;;;;;;;;4.47;100.00;98826.22;5045176;28;19946;-67
2021/11/25 00:10:48;;;;;;;;;;;;;;;5.05;100.00;98826.44;5044222;28;19924;-67
2021/11/25 00:13:14;;;;;;;;;;;;;;;5.40;100.00;98814.03;5030984;28;19964;-67
2021/11/25 00:15:40;;;;;;;;;;;;;;;4.58;100.00;98814.22;5050350;28;19916;-67
2021/11/25 00:18:05;;;;;;;;;;;;;;;5.10;100.00;98817.00;5045273;28;20410;-67
2021/11/25 00:20:30;;;;;;;;;;;;;;;5.63;100.00;98810.28;5029149;28;20444;-67
2021/11/25 00:22:56;;;;;;;;;;;;;;;5.29;100.00;98800.59;5047008;28;19944;-67
2021/11/25 00:25:21;;;;;;;;;;;;;;;5.30;100.00;98804.81;5026587;28;19922;-67
2021/11/25 00:27:47;;;;;;;;;;;;;;;5.54;100.00;98792.53;5041930;28;19983;-67
2021/11/25 00:30:12;;;;;;;;;;;;;;;5.50;100.00;98788.38;5051039;28;19927;-68
2021/11/25 00:32:39;;;;;;;;;;;;;;;5.59;100.00;98783.97;5049204;28;19933;-68
2021/11/25 00:35:05;;;;;;;;;;;;;;;5.68;100.00;98777.00;5044827;28;19924;-67
2021/11/25 00:37:30;;;;;;;;;;;;;;;5.89;100.00;98768.16;5048051;28;20039;-68
2021/11/25 00:39:56;;;;;;;;;;;;;;;5.81;100.00;98768.28;5003716;28;19929;-67
2021/11/25 00:42:21;;;;;;;;;;;;;;;5.62;100.00;98762.63;5045999;28;19954;-67
2021/11/25 00:44:47;;;;;;;;;;;;;;;5.52;100.00;98761.06;5047146;28;19962;-68
2021/11/25 00:47:12;;;;;;;;;;;;;;;5.32;100.00;98764.78;5050236;28;19921;-67
2021/11/25 00:49:37;;;;;;;;;;;;;;;5.74;100.00;98762.44;5043718;28;19925;-67
2021/11/25 00:52:03;;;;;;;;;;;;;;;5.70;100.00;98754.84;5028956;28;20035;-67
2021/11/25 00:54:29;;;;;;;;;;;;;;;6.02;100.00;98751.75;5048744;28;19958;-67
2021/11/25 00:56:54;;;;;;;;;;;;;;;5.66;100.00;98748.94;5049407;28;19921;-67
2021/11/25 00:59:19;;;;;;;;;;;;;;;5.40;100.00;98745.06;5027235;28;19925;-67
2021/11/25 01:01:45;;;;;;;;;;;;;;;5.82;100.00;98747.00;5042457;28;19950;-67
2021/11/25 01:04:10;;;;;;;;;;;;;;;5.00;100.00;98747.38;5045852;28;19952;-68
2021/11/25 01:06:36;;;;;;;;;;;;;;;5.14;100.00;98747.19;5050846;28;19920;-67
2021/11/25 01:09:02;;;;;;;;;;;;;;;4.78;100.00;98746.81;5028876;28;19997;-67
2021/11/25 01:11:27;;;;;;;;;;;;;;;4.61;100.00;98750.41;5044333;28;20276;-67
2021/11/25 01:13:53;;;;;;;;;;;;;;;5.01;100.00;98749.88;5045187;28;19924;-67
2021/11/25 01:16:18;;;;;;;;;;;;;;;5.27;100.00;98748.69;5050543;28;20011;-67
2021/11/25 01:18:44;;;;;;;;;;;;;;;4.63;100.00;98747.00;5044199;28;19925;-67
2021/11/25 01:21:09;;;;;;;;;;;;;;;4.94;100.00;98740.63;5048908;28;19924;-67
2021/11/25 01:23:35;;;;;;;;;;;;;;;4.66;100.00;98739.31;5050844;28;19982;-68
2021/11/25 01:26:00;;;;;;;;;;;;;;;4.65;100.00;98735.06;5045563;28;20011;-67
2021/11/25 01:28:27;;;;;;;;;;;;;;;4.67;100.00;98728.25;5028705;28;19939;-67
2021/11/25 01:30:53;;;;;;;;;;;;;;;4.41;100.00;98737.06;5051020;28;20010;-67
2021/11/25 01:33:19;;;;;;;;;;;;;;;4.79;100.00;98733.19;5050290;28;19935;-68
2021/11/25 01:35:44;;;;;;;;;;;;;;;4.53;100.00;98729.25;5048268;28;19920;-67
2021/11/25 01:38:10;;;;;;;;;;;;;;;4.65;100.00;98730.81;5029407;28;19967;-67
2021/11/25 01:40:36;;;;;;;;;;;;;;;5.23;100.00;98730.03;5042968;28;19917;-67
2021/11/25 01:43:01;;;;;;;;;;;;;;;5.42;100.00;98716.97;5047508;28;19920;-68
2021/11/25 01:45:28;;;;;;;;;;;;;;;5.16;100.00;98713.09;5038811;28;19927;-67
2021/11/25 01:47:54;;;;;;;;;;;;;;;5.60;100.00;98715.84;5028084;28;19920;-68
2021/11/25 01:50:20;;;;;;;;;;;;;;;5.14;100.00;98706.34;5047133;28;20376;-67
2021/11/25 01:52:46;;;;;;;;;;;;;;;5.22;100.00;98709.59;5048545;28;19923;-68
2021/11/25 01:55:12;;;;;;;;;;;;;;;5.68;100.00;98706.34;5051198;28;19920;-68
2021/11/25 01:57:37;;;;;;;;;;;;;;;5.92;100.00;98691.44;5046476;28;19927;-67
2021/11/25 02:00:07;;;;;;;;;;;;;;;5.70;100.00;98690.97;5040490;28;19926;-67
2021/11/25 02:02:38;;;;;;;;;;;;;;;6.13;100.00;98683.38;5042846;28;20007;-67
2021/11/25 02:08:15;;;;;;;;;;;;;;;6.06;100.00;98682.66;5047502;28;19978;-67
2021/11/25 02:10:42;;;;;;;;;;;;;;;6.05;100.00;98669.94;5045149;28;19920;-67
2021/11/25 02:13:07;;;;;;;;;;;;;;;6.28;100.00;98670.31;5028660;28;20458;-67
2021/11/25 02:15:37;;;;;;;;;;;;;;;6.25;100.00;98667.81;5049667;28;20014;-67
2021/11/25 02:18:07;;;;;;;;;;;;;;;6.34;100.00;98671.06;5029018;28;19920;-67
2021/11/25 02:20:33;;;;;;;;;;;;;;;6.42;100.00;98667.47;5047118;28;19924;-67
2021/11/25 02:23:00;;;;;;;;;;;;;;;6.07;100.00;98666.47;5041464;28;19928;-67
2021/11/25 02:25:26;;;;;;;;;;;;;;;6.07;100.00;98656.25;5026445;28;19916;-67
2021/11/25 02:27:51;;;;;;;;;;;;;;;6.22;100.00;98652.53;5051895;28;20366;-67
2021/11/25 02:30:20;;;;;;;;;;;;;;;6.11;100.00;98646.78;5043199;28;19925;-67
2021/11/25 02:32:45;;;;;;;;;;;;;;;6.04;100.00;98645.22;5049968;28;19921;-67
2021/11/25 02:35:13;;;;;;;;;;;;;;;6.00;100.00;98635.94;5025509;28;19917;-67
2021/11/25 02:37:38;;;;;;;;;;;;;;;6.06;100.00;98633.25;5046127;28;19929;-67
2021/11/25 02:40:24;;;;;;;;;;;;;;;5.36;100.00;98641.31;5042366;28;19925;-67
2021/11/25 02:42:51;;;;;;;;;;;;;;;5.78;100.00;98638.88;5024539;28;19925;-67
2021/11/25 02:45:19;;;;;;;;;;;;;;;5.81;100.00;98635.41;5025771;28;19920;-67
2021/11/25 02:47:44;;;;;;;;;;;;;;;5.72;100.00;98636.41;5025859;28;19920;-67
2021/11/25 02:50:10;;;;;;;;;;;;;;;6.03;100.00;98630.78;5041207;28;19927;-67
2021/11/25 02:52:39;;;;;;;;;;;;;;;6.47;100.00;98626.44;5035561;28;19974;-67
2021/11/25 02:55:05;;;;;;;;;;;;;;;6.18;100.00;98624.50;5048264;28;20375;-67
2021/11/25 02:57:34;;;;;;;;;;;;;;;6.37;100.00;98619.88;5048595;28;19920;-68
2021/11/25 02:59:59;;;;;;;;;;;;;;;5.27;100.00;98628.72;5045874;28;20379;-67
2021/11/25 03:02:25;;;;;;;;;;;;;;;4.45;100.00;98639.28;5050470;28;19924;-67
2021/11/25 03:04:51;;;;;;;;;;;;;;;4.79;100.00;98651.56;5050953;28;19924;-67
2021/11/25 03:07:16;;;;;;;;;;;;;;;5.73;100.00;98650.06;5026822;28;19951;-67
2021/11/25 03:09:41;;;;;;;;;;;;;;;6.13;100.00;98642.47;5042969;28;19920;-67
2021/11/25 03:12:08;;;;;;;;;;;;;;;6.17;100.00;98636.44;5045786;28;19924;-67
2021/11/25 03:14:34;;;;;;;;;;;;;;;5.69;100.00;98641.59;5025147;28;19916;-69
2021/11/25 03:16:59;;;;;;;;;;;;;;;6.16;100.00;98647.56;5051563;28;19927;-69
2021/11/25 03:19:25;;;;;;;;;;;;;;;6.30;100.00;98644.72;5049717;28;20024;-68
2021/11/25 03:21:51;;;;;;;;;;;;;;;5.66;100.00;98646.75;5048793;28;20020;-69
2021/11/25 03:24:16;;;;;;;;;;;;;;;5.67;100.00;98648.44;5045306;28;19937;-69
2021/11/25 03:26:42;;;;;;;;;;;;;;;6.10;100.00;98646.84;5043338;28;19950;-69
2021/11/25 03:29:07;;;;;;;;;;;;;;;5.94;100.00;98644.56;5045075;28;20447;-69
2021/11/25 03:31:33;;;;;;;;;;;;;;;5.77;100.00;98646.53;5043087;28;19965;-68
2021/11/25 03:33:59;;;;;;;;;;;;;;;6.11;100.00;98641.66;5021551;28;20487;-69
2021/11/25 03:36:25;;;;;;;;;;;;;;;6.27;100.00;98639.66;5045033;28;20010;-69
2021/11/25 03:38:51;;;;;;;;;;;;;;;6.39;100.00;98630.91;5041185;28;19929;-69
2021/11/25 03:41:17;;;;;;;;;;;;;;;6.28;100.00;98620.88;5040358;28;19920;-68
2021/11/25 03:43:43;;;;;;;;;;;;;;;6.22;100.00;98611.63;5040983;28;20407;-69
2021/11/25 03:46:08;;;;;;;;;;;;;;;5.89;100.00;98622.50;5039924;28;20016;-69
2021/11/25 03:48:34;;;;;;;;;;;;;;;5.80;100.00;98619.25;5046331;28;19978;-69
2021/11/25 03:51:00;;;;;;;;;;;;;;;5.88;100.00;98621.63;5047978;28;20358;-69
2021/11/25 03:53:26;;;;;;;;;;;;;;;5.96;100.00;98619.00;5046771;28;19931;-69
2021/11/25 03:55:52;;;;;;;;;;;;;;;6.20;100.00;98618.50;5042541;28;19925;-69
2021/11/25 03:58:17;;;;;;;;;;;;;;;6.39;100.00;98602.78;5026302;28;19929;-69
2021/11/25 04:00:43;;;;;;;;;;;;;;;6.36;100.00;98613.03;5026511;28;20295;-69
2021/11/25 04:03:08;;;;;;;;;;;;;;;6.18;100.00;98616.81;5042251;28;19935;-69
2021/11/25 04:05:33;;;;;;;;;;;;;;;6.12;100.00;98614.41;5046300;28;19986;-69
2021/11/25 04:07:59;;;;;;;;;;;;;;;5.77;100.00;98611.63;5025871;28;20034;-69
2021/11/25 04:10:24;;;;;;;;;;;;;;;6.25;100.00;98606.47;5024251;28;19921;-68
2021/11/25 04:12:50;;;;;;;;;;;;;;;6.28;100.00;98596.16;5046620;28;19920;-69
2021/11/25 04:15:15;;;;;;;;;;;;;;;6.13;100.00;98591.34;5045144;28;19924;-69
2021/11/25 04:17:41;;;;;;;;;;;;;;;6.07;100.00;98601.72;5017604;28;19987;-69
2021/11/25 04:20:07;;;;;;;;;;;;;;;6.09;100.00;98592.31;5040472;28;19975;-68
2021/11/25 04:22:33;;;;;;;;;;;;;;;5.94;100.00;98595.13;5042046;28;19920;-68
2021/11/25 04:24:58;;;;;;;;;;;;;;;6.28;100.00;98596.16;5048786;28;19924;-69
2021/11/25 04:27:23;;;;;;;;;;;;;;;6.15;100.00;98591.34;5022314;28;20022;-68
2021/11/25 04:30:13;;;;;;;;;;;;;;;5.92;100.00;98596.88;5036576;28;19920;-68
2021/11/25 04:35:34;;;;;;;;;;;;;;;5.84;100.00;98590.22;5040498;28;19973;-68
2021/11/25 04:38:01;;;;;;;;;;;;;;;6.34;100.00;98590.09;5026751;28;20054;-68
2021/11/25 04:40:27;;;;;;;;;;;;;;;6.37;100.00;98592.56;5045368;28;19920;-69
2021/11/25 04:42:53;;;;;;;;;;;;;;;6.43;100.00;98596.69;5022886;28;19932;-68
2021/11/25 04:45:18;;;;;;;;;;;;;;;6.31;100.00;98594.41;5047106;28;19924;-68
2021/11/25 04:47:44;;;;;;;;;;;;;;;6.24;100.00;98589.41;5053235;28;19925;-68
2021/11/25 04:50:09;;;;;;;;;;;;;;;6.20;100.00;98572.47;5040235;28;19935;-68
2021/11/25 04:52:34;;;;;;;;;;;;;;;5.85;100.00;98571.44;5021948;28;19925;-68
2021/11/25 04:55:00;;;;;;;;;;;;;;;5.91;100.00;98574.72;5040681;28;19917;-68
2021/11/25 04:57:25;;;;;;;;;;;;;;;6.13;100.00;98555.56;5040520;28;19916;-68
2021/11/25 04:59:55;;;;;;;;;;;;;;;5.81;100.00;98557.03;5026454;28;19920;-68
2021/11/25 05:02:21;;;;;;;;;;;;;;;5.78;100.00;98557.09;5045054;28;20364;-68
2021/11/25 05:04:46;;;;;;;;;;;;;;;6.00;100.00;98559.28;5050098;28;19927;-68
2021/11/25 05:07:11;;;;;;;;;;;;;;;6.05;100.00;98565.13;5040641;28;19928;-68
2021/11/25 05:09:37;;;;;;;;;;;;;;;6.04;100.00;98560.88;5044045;28;19929;-69
2021/11/25 05:12:04;;;;;;;;;;;;;;;5.99;100.00;98557.56;5039937;28;19921;-68
2021/11/25 05:14:29;;;;;;;;;;;;;;;6.12;100.00;98564.13;5049857;28;19970;-68
2021/11/25 05:16:55;;;;;;;;;;;;;;;6.06;100.00;98559.13;5029158;28;20387;-68
2021/11/25 05:19:20;;;;;;;;;;;;;;;6.12;100.00;98559.00;5042955;28;19920;-68
2021/11/25 05:21:46;;;;;;;;;;;;;;;5.82;100.00;98561.28;5052199;28;19982;-68
2021/11/25 05:24:12;;;;;;;;;;;;;;;4.95;100.00;98573.91;5050305;28;19916;-68
2021/11/25 05:26:37;;;;;;;;;;;;;;;5.94;100.00;98567.03;5044451;28;19927;-68
2021/11/25 05:29:03;;;;;;;;;;;;;;;6.23;100.00;98559.63;5046712;28;19959;-68
2021/11/25 05:31:29;;;;;;;;;;;;;;;6.22;100.00;98557.91;5043217;28;19940;-68
2021/11/25 05:33:54;;;;;;;;;;;;;;;6.14;100.00;98554.69;5044103;28;20471;-68
2021/11/25 05:36:19;;;;;;;;;;;;;;;6.21;100.00;98553.69;5048327;28;19926;-68
2021/11/25 05:38:45;;;;;;;;;;;;;;;6.23;100.00;98543.44;5042631;28;19924;-68
2021/11/25 05:41:10;;;;;;;;;;;;;;;6.30;100.00;98539.88;5026999;28;19916;-69
2021/11/25 05:43:36;;;;;;;;;;;;;;;6.13;100.00;98530.00;5022455;28;19921;-68
2021/11/25 05:46:01;;;;;;;;;;;;;;;6.25;100.00;98544.25;5048437;28;19917;-68
2021/11/25 05:48:27;;;;;;;;;;;;;;;6.22;100.00;98531.50;5048321;28;19964;-68
2021/11/25 05:50:52;;;;;;;;;;;;;;;6.31;100.00;98528.75;5048077;28;20783;-68
2021/11/25 05:53:20;;;;;;;;;;;;;;;6.30;100.00;98532.19;5042721;28;19917;-69
2021/11/25 05:55:46;;;;;;;;;;;;;;;6.28;100.00;98528.84;5049493;28;19924;-68
2021/11/25 05:58:11;;;;;;;;;;;;;;;6.09;100.00;98538.63;5023983;28;19978;-68
2021/11/25 06:00:36;;;;;;;;;;;;;;;6.14;100.00;98535.97;5052097;28;19927;-68
2021/11/25 06:03:03;;;;;;;;;;;;;;;6.12;100.00;98536.00;5025785;28;19996;-68
2021/11/25 06:05:28;;;;;;;;;;;;;;;5.83;100.00;98537.41;5049907;28;19943;-69
2021/11/25 06:07:54;;;;;;;;;;;;;;;5.34;100.00;98535.81;5046823;28;20395;-68
2021/11/25 06:10:20;;;;;;;;;;;;;;;5.27;100.00;98536.81;5053613;28;19916;-68
2021/11/25 06:12:48;;;;;;;;;;;;;;;5.47;100.00;98538.97;5029157;28;19920;-68
2021/11/25 06:15:14;;;;;;;;;;;;;;;5.10;100.00;98539.63;5049422;28;19930;-69
2021/11/25 06:17:39;;;;;;;;;;;;;;;5.38;100.00;98537.44;5052790;28;19916;-68
2021/11/25 06:20:11;;;;;;;;;;;;;;;5.50;100.00;98543.19;5047725;28;20007;-69
2021/11/25 06:22:38;;;;;;;;;;;;;;;5.57;100.00;98534.53;5051327;28;19924;-69
2021/11/25 06:25:04;;;;;;;;;;;;;;;5.65;100.00;98527.56;5043935;28;20606;-69
2021/11/25 06:27:29;;;;;;;;;;;;;;;5.76;100.00;98527.34;5052129;28;19920;-70
2021/11/25 06:29:54;;;;;;;;;;;;;;;5.74;100.00;98521.41;5041028;28;19920;-69
2021/11/25 06:32:24;;;;;;;;;;;;;;;5.43;100.00;98516.94;5027249;28;19917;-69
2021/11/25 06:34:52;;;;;;;;;;;;;;;5.45;100.00;98508.38;5044757;28;19952;-68
2021/11/25 06:37:17;;;;;;;;;;;;;;;5.42;100.00;98516.06;5046523;28;20015;-68
2021/11/25 06:39:43;;;;;;;;;;;;;;;5.33;100.00;98511.13;5046504;28;20019;-68
2021/11/25 06:42:08;;;;;;;;;;;;;;;4.93;100.00;98511.88;5044712;28;20354;-68
2021/11/25 06:44:34;;;;;;;;;;;;;;;5.08;100.00;98509.91;5052840;28;19917;-69
2021/11/25 06:47:00;;;;;;;;;;;;;;;5.00;100.00;98503.22;5047084;28;19920;-68
2021/11/25 06:49:26;;;;;;;;;;;;;;;5.34;100.00;98502.63;5042281;28;19925;-69
2021/11/25 06:51:51;;;;;;;;;;;;;;;5.31;100.00;98505.22;5037298;28;20568;-68
2021/11/25 06:54:19;;;;;;;;;;;;;;;4.94;100.00;98497.38;5045789;28;19929;-69
2021/11/25 06:56:45;;;;;;;;;;;;;;;4.73;100.00;98504.53;5048008;28;19944;-69
2021/11/25 06:59:10;;;;;;;;;;;;;;;4.89;100.00;98500.03;5049105;28;20541;-68
2021/11/25 07:01:36;;;;;;;;;;;;;;;4.69;100.00;98499.50;5045185;28;20914;-68
2021/11/25 07:04:02;;;;;;;;;;;;;;;4.96;100.00;98506.69;5044844;28;20506;-68
2021/11/25 07:06:27;;;;;;;;;;;;;;;4.88;100.00;98506.00;5028598;28;20498;-68
2021/11/25 07:08:53;;;;;;;;;;;;;;;4.92;100.00;98507.59;5031264;28;19978;-68
2021/11/25 07:11:18;;;;;;;;;;;;;;;4.80;100.00;98506.13;5049096;28;19920;-69
2021/11/25 07:13:43;;;;;;;;;;;;;;;4.74;100.00;98505.38;5049006;28;19916;-69
2021/11/25 07:16:09;;;;;;;;;;;;;;;4.93;100.00;98523.78;5047420;28;19924;-69
2021/11/25 07:18:34;;;;;;;;;;;;;;;5.03;100.00;98510.81;5043510;28;19940;-68
2021/11/25 07:21:00;;;;;;;;;;;;;;;4.78;100.00;98519.75;5042261;28;19964;-68
2021/11/25 07:23:25;;;;;;;;;;;;;;;4.32;100.00;98517.94;5026257;28;19921;-68
2021/11/25 07:25:51;;;;;;;;;;;;;;;4.46;100.00;98520.28;5029889;28;19952;-68
2021/11/25 07:28:16;;;;;;;;;;;;;;;4.61;100.00;98515.78;5048107;28;19924;-68
2021/11/25 07:30:42;;;;;;;;;;;;;;;4.75;100.00;98507.06;5054263;28;19916;-68
2021/11/25 07:33:07;;;;;;;;;;;;;;;4.25;100.00;98506.16;5048650;28;20369;-68
2021/11/25 07:35:43;;;;;;;;;;;;;;;4.68;100.00;98511.44;5045668;28;19931;-68
2021/11/25 07:38:11;;;;;;;;;;;;;;;4.45;100.00;98511.78;5045056;28;19925;-68
2021/11/25 07:40:48;;;;;;;;;;;;;;;4.11;100.00;98519.91;5046672;28;19956;-68
2021/11/25 07:43:13;;;;;;;;;;;;;;;3.71;100.00;98538.25;5036406;28;19928;-68
2021/11/25 07:45:39;;;;;;;;;;;;;;;3.81;100.00;98538.13;5028643;28;19928;-68
2021/11/25 07:48:04;;;;;;;;;;;;;;;4.54;100.00;98539.69;5052636;28;19923;-68
2021/11/25 07:50:30;;;;;;;;;;;;;;;4.86;100.00;98530.69;5047906;28;20041;-68
2021/11/25 07:52:56;;;;;;;;;;;;;;;4.96;100.00;98528.81;5039969;28;19968;-68
2021/11/25 07:55:22;;;;;;;;;;;;;;;5.01;100.00;98530.41;5051011;28;19920;-68
2021/11/25 07:57:49;;;;;;;;;;;;;;;4.95;100.00;98520.34;5050982;28;19917;-68
2021/11/25 08:03:17;;;;;;;;;;;;;;;5.05;100.00;98527.84;5038408;28;19931;-68
2021/11/25 08:05:42;;;;;;;;;;;;;;;4.42;100.00;98539.03;5042225;28;19921;-68
2021/11/25 08:08:10;;;;;;;;;;;;;;;3.59;100.00;98545.19;5028118;28;19920;-68
2021/11/25 08:10:36;;;;;;;;;;;;;;;4.15;100.00;98554.69;5022537;28;19974;-68
2021/11/25 08:13:03;;;;;;;;;;;;;;;3.71;100.00;98550.16;5026266;28;19925;-68
2021/11/25 08:15:29;;;;;;;;;;;;;;;3.76;100.00;98561.97;5040340;28;19932;-68
2021/11/25 08:17:54;;;;;;;;;;;;;;;4.40;100.00;98567.09;5045196;28;19920;-68
2021/11/25 08:20:20;;;;;;;;;;;;;;;2.92;100.00;98571.28;5052925;28;19986;-68
2021/11/25 08:22:45;;;;;;;;;;;;;;;2.65;100.00;98582.50;5049063;28;19925;-68
2021/11/25 08:25:11;;;;;;;;;;;;;;;2.64;100.00;98592.69;5056961;28;19920;-68
2021/11/25 08:27:40;;;;;;;;;;;;;;;2.28;100.00;98599.66;5047895;28;20643;-68
2021/11/25 08:30:07;;;;;;;;;;;;;;;2.29;100.00;98604.75;5042803;28;19920;-68
2021/11/25 08:32:32;;;;;;;;;;;;;;;2.50;100.00;98610.56;5028739;28;19928;-68
2021/11/25 08:34:58;;;;;;;;;;;;;;;2.42;100.00;98613.16;5051747;28;19912;-68
2021/11/25 08:37:23;;;;;;;;;;;;;;;2.60;100.00;98622.38;5029043;28;19916;-69
2021/11/25 08:39:48;;;;;;;;;;;;;;;2.81;100.00;98630.72;5049909;28;20334;-68
2021/11/25 08:42:14;;;;;;;;;;;;;;;2.77;100.00;98632.44;5029826;28;19971;-68
2021/11/25 08:44:40;;;;;;;;;;;;;;;2.60;100.00;98631.69;5043736;28;20015;-68
2021/11/25 08:47:05;;;;;;;;;;;;;;;2.46;100.00;98629.22;5050320;28;19927;-68
2021/11/25 08:49:30;;;;;;;;;;;;;;;2.65;100.00;98640.16;5051844;28;19923;-68
2021/11/25 08:51:59;;;;;;;;;;;;;;;2.84;100.00;98644.25;5053191;28;19917;-67
2021/11/25 08:54:24;;;;;;;;;;;;;;;3.12;100.00;98646.59;5050565;28;20510;-68
2021/11/25 08:56:51;;;;;;;;;;;;;;;2.81;100.00;98646.81;5051594;28;19956;-68
2021/11/25 08:59:16;;;;;;;;;;;;;;;2.97;100.00;98647.56;5042256;28;20372;-68
2021/11/25 09:01:42;;;;;;;;;;;;;;;3.48;100.00;98644.59;5044350;28;19921;-68
2021/11/25 09:04:07;;;;;;;;;;;;;;;3.96;100.00;98627.13;5049079;28;19921;-68
2021/11/25 09:06:35;;;;;;;;;;;;;;;3.68;100.00;98609.59;5044449;28;20404;-67
2021/11/25 09:09:00;;;;;;;;;;;;;;;4.27;100.00;98612.31;5044808;28;19924;-68
2021/11/25 09:11:25;;;;;;;;;;;;;;;4.09;100.00;98603.19;5050277;28;19912;-67
2021/11/25 09:13:51;;;;;;;;;;;;;;;4.52;100.00;98596.69;5046018;28;19930;-68
2021/11/25 09:16:17;;;;;;;;;;;;;;;4.44;100.00;98589.13;5029386;28;19913;-68
2021/11/25 09:18:43;;;;;;;;;;;;;;;4.22;100.00;98587.72;5048775;28;19920;-68
2021/11/25 09:21:08;;;;;;;;;;;;;;;4.67;100.00;98585.41;5044061;28;19978;-68
2021/11/25 09:23:38;;;;;;;;;;;;;;;4.23;100.00;98572.44;5047261;28;20365;-68
2021/11/25 09:26:04;;;;;;;;;;;;;;;5.09;100.00;98562.66;5022059;28;19921;-67
2021/11/25 09:28:29;;;;;;;;;;;;;;;4.30;100.00;98557.91;5047730;28;19924;-68
2021/11/25 09:30:55;;;;;;;;;;;;;;;3.61;100.00;98557.06;5053044;28;19916;-68
2021/11/25 09:33:21;;;;;;;;;;;;;;;4.21;100.00;98552.91;5029125;28;19932;-68
2021/11/25 09:35:47;;;;;;;;;;;;;;;4.38;100.00;98539.09;5047665;28;19948;-68
2021/11/25 09:38:12;;;;;;;;;;;;;;;4.26;100.00;98543.50;5027664;28;19931;-67
2021/11/25 09:40:42;;;;;;;;;;;;;;;4.26;100.00;98543.50;5050214;28;19920;-67
2021/11/25 09:43:10;;;;;;;;;;;;;;;4.67;100.00;98544.59;5029180;28;19916;-68
2021/11/25 09:45:37;;;;;;;;;;;;;;;5.90;100.00;98527.06;5023095;28;19916;-68
2021/11/25 09:48:04;;;;;;;;;;;;;;;5.95;100.00;98509.94;5049022;28;19912;-68
2021/11/25 09:50:33;;;;;;;;;;;;;;;5.07;100.00;98498.03;5048641;28;20982;-68
2021/11/25 09:53:04;;;;;;;;;;;;;;;5.13;100.00;98503.88;5042665;28;20093;-67
2021/11/25 09:55:29;;;;;;;;;;;;;;;5.16;100.00;98497.84;5030185;28;20035;-68
2021/11/25 09:57:55;;;;;;;;;;;;;;;5.50;100.00;98503.16;5029264;28;20066;-68
2021/11/25 10:00:21;;;;;;;;;;;;;;;5.50;100.00;98504.88;5026935;28;20372;-68
2021/11/25 10:02:46;;;;;;;;;;;;;;;5.00;100.00;98515.16;5049504;28;20372;-68
2021/11/25 10:05:12;;;;;;;;;;;;;;;4.53;100.00;98515.03;5047644;28;19913;-68
2021/11/25 10:07:40;;;;;;;;;;;;;;;4.16;100.00;98533.44;5043682;28;19955;-68
2021/11/25 10:10:19;;;;;;;;;;;;;;;4.18;100.00;98534.25;5044241;28;19916;-68
2021/11/25 10:12:48;;;;;;;;;;;;;;;4.37;100.00;98539.09;5043816;28;19980;-68
2021/11/25 10:15:23;;;;;;;;;;;;;;;4.99;100.00;98532.16;5046002;28;19917;-68
2021/11/25 10:17:51;;;;;;;;;;;;;;;6.03;100.00;98508.06;5045335;28;20794;-69
2021/11/25 10:20:19;;;;;;;;;;;;;;;5.49;100.00;98519.34;5048251;28;19967;-68
2021/11/25 10:23:03;;;;;;;;;;;;;;;4.68;100.00;98515.69;5028691;28;20019;-68
2021/11/25 10:25:44;;;;;;;;;;;;;;;4.60;100.00;98519.19;5048698;28;19924;-68
2021/11/25 10:28:23;;;;;;;;;;;;;;;4.69;100.00;98509.72;5047393;28;20437;-68
2021/11/25 10:30:50;;;;;;;;;;;;;;;4.66;100.00;98507.22;5028069;28;20832;-68
2021/11/25 10:33:19;;;;;;;;;;;;;;;4.81;100.00;98506.94;5049496;28;19936;-68
2021/11/25 10:36:03;;;;;;;;;;;;;;;4.60;100.00;98516.63;5008410;28;19916;-68
2021/11/25 10:38:45;;;;;;;;;;;;;;;4.40;100.00;98521.19;5034121;28;20025;-68
2021/11/25 10:41:14;;;;;;;;;;;;;;;4.19;100.00;98522.34;5032589;28;20580;-68
2021/11/25 10:43:39;;;;;;;;;;;;;;;4.39;100.00;98528.00;5044411;28;20898;-67
2021/11/25 10:46:06;;;;;;;;;;;;;;;4.29;100.00;98528.16;5029372;28;19959;-67
2021/11/25 10:48:38;;;;;;;;;;;;;;;4.42;100.00;98523.72;5047336;28;19917;-67
2021/11/25 10:51:22;;;;;;;;;;;;;;;4.63;100.00;98527.66;5028738;28;19971;-68
2021/11/25 10:54:08;;;;;;;;;;;;;;;4.51;100.00;98526.97;5048501;28;20006;-64
2021/11/25 10:56:38;;;;;;;;;;;;;;;4.30;100.00;98522.22;5046611;28;20047;-67
2021/11/25 10:59:07;;;;;;;;;;;;;;;4.40;100.00;98513.53;5033250;28;19921;-68
2021/11/25 11:01:33;;;;;;;;;;;;;;;4.76;100.00;98509.56;5025931;28;19952;-68
2021/11/25 11:03:59;;;;;;;;;;;;;;;4.64;100.00;98521.69;5030670;28;19958;-67
2021/11/25 11:06:40;;;;;;;;;;;;;;;4.32;100.00;98528.97;5025273;28;19980;-68
2021/11/25 11:09:09;;;;;;;;;;;;;;;4.12;100.00;98543.69;5030180;28;19913;-67
2021/11/25 11:11:37;;;;;;;;;;;;;;;4.08;100.00;98555.66;5030880;28;19917;-67
2021/11/25 11:14:30;;;;;;;;;;;;;;;4.11;100.00;98552.22;5049449;28;20422;-67
2021/11/25 11:17:21;;;;;;;;;;;;;;;3.91;100.00;98555.00;5052834;28;19916;-67
2021/11/25 11:20:05;;;;;;;;;;;;;;;4.29;100.00;98554.50;5047200;28;20023;-67
2021/11/25 11:22:30;;;;;;;;;;;;;;;4.06;100.00;98542.09;5050290;28;20410;-68
2021/11/25 11:24:55;;;;;;;;;;;;;;;4.54;100.00;98543.97;5046502;28;19959;-68
2021/11/25 11:27:21;;;;;;;;;;;;;;;4.37;100.00;98539.09;5026362;28;19924;-67
2021/11/25 11:29:46;;;;;;;;;;;;;;;4.33;100.00;98532.34;5043601;28;19968;-68
2021/11/25 11:32:12;;;;;;;;;;;;;;;4.15;100.00;98516.47;5047156;28;19920;-67
2021/11/25 11:34:37;;;;;;;;;;;;;;;4.55;100.00;98526.06;5028129;28;19965;-68
2021/11/25 11:37:06;;;;;;;;;;;;;;;5.29;100.00;98519.75;5028842;28;19917;-68
2021/11/25 11:39:34;;;;;;;;;;;;;;;5.53;100.00;98512.47;5028811;28;20038;-68
2021/11/25 11:42:00;;;;;;;;;;;;;;;4.87;100.00;98506.84;5049251;28;19916;-68
2021/11/25 11:44:26;;;;;;;;;;;;;;;4.64;100.00;98519.16;5026743;28;19927;-67
2021/11/25 11:47:00;;;;;;;;;;;;;;;4.54;100.00;98514.19;5049116;28;19921;-67
2021/11/25 11:49:26;;;;;;;;;;;;;;;4.46;100.00;98517.72;5031042;28;19920;-69
2021/11/25 11:52:01;;;;;;;;;;;;;;;4.54;100.00;98516.75;5048475;28;20486;-68
2021/11/25 11:54:27;;;;;;;;;;;;;;;4.71;100.00;98518.19;5043916;28;19916;-67
2021/11/25 11:56:55;;;;;;;;;;;;;;;4.77;100.00;98510.44;5043572;28;19920;-68
2021/11/25 11:59:21;;;;;;;;;;;;;;;4.89;100.00;98504.28;5045374;28;20387;-68
2021/11/25 12:01:50;;;;;;;;;;;;;;;4.58;100.00;98509.88;5024920;28;20342;-68
2021/11/25 12:04:16;;;;;;;;;;;;;;;5.16;100.00;98497.84;5005408;28;20011;-68
2021/11/25 12:06:43;;;;;;;;;;;;;;;5.76;100.00;98478.81;5027594;28;19999;-68
2021/11/25 12:09:14;;;;;;;;;;;;;;;6.32;100.00;98466.53;5027292;28;20348;-68
2021/11/25 12:11:39;;;;;;;;;;;;;;;5.81;100.00;98441.22;5044165;28;19968;-68
2021/11/25 12:14:06;;;;;;;;;;;;;;;5.99;100.00;98440.84;5048350;28;19947;-68
2021/11/25 12:16:32;;;;;;;;;;;;;;;5.92;100.00;98433.31;5023835;28;19917;-68
2021/11/25 12:18:59;;;;;;;;;;;;;;;5.81;100.00;98431.81;5046195;28;19925;-68
2021/11/25 12:21:34;;;;;;;;;;;;;;;6.04;100.00;98422.84;5041391;28;19924;-68
2021/11/25 12:24:27;;;;;;;;;;;;;;;5.48;100.00;98422.34;5046588;28;19932;-68
2021/11/25 12:27:13;;;;;;;;;;;;;;;5.22;100.00;98416.03;5040320;28;19935;-68
2021/11/25 12:29:46;;;;;;;;;;;;;;;5.37;100.00;98418.28;5045902;28;19916;-68
2021/11/25 12:32:26;;;;;;;;;;;;;;;5.27;100.00;98418.50;5044576;28;19924;-68
2021/11/25 12:34:51;;;;;;;;;;;;;;;5.71;100.00;98415.03;5024112;28;19920;-68
2021/11/25 12:37:36;;;;;;;;;;;;;;;5.66;100.00;98416.84;5025722;28;19918;-68
2021/11/25 12:40:02;;;;;;;;;;;;;;;5.40;100.00;98415.66;5042374;28;19928;-68
2021/11/25 12:42:27;;;;;;;;;;;;;;;5.57;100.00;98407.66;5035126;28;19920;-68
2021/11/25 12:44:58;;;;;;;;;;;;;;;5.39;100.00;98402.94;5043415;28;19917;-67
2021/11/25 12:47:23;;;;;;;;;;;;;;;5.21;100.00;98411.81;5041687;28;20394;-68
2021/11/25 12:49:49;;;;;;;;;;;;;;;5.53;100.00;98408.59;5044003;28;19921;-68
2021/11/25 12:52:31;;;;;;;;;;;;;;;6.00;100.00;98411.84;5048005;28;19963;-68
2021/11/25 12:55:09;;;;;;;;;;;;;;;5.85;100.00;98410.44;5042188;28;20382;-67
2021/11/25 12:57:53;;;;;;;;;;;;;;;5.89;100.00;98397.63;5045078;28;19924;-68